sensor_id;sensor_type;location;lat;lon;timestamp;P1;durP1;ratioP1;P2;durP2;ratioP2
24745;SDS011;12845;52.042;6.838;2023-03-01T00:02:00;14.45;;;9.82;;
24745;SDS011;12845;52.042;6.838;2023-03-01T00:04:26;13.65;;;9.95;;
24745;SDS011;12845;52.042;6.838;2023-03-01T00:06:52;12.43;;;9.68;;
24745;SDS011;12845;52.042;6.838;2023-03-01T00:09:18;12.80;;;9.63;;
24745;SDS011;12845;52.042;6.838;2023-03-01T00:11:43;10.02;;;8.30;;
24745;SDS011;12845;52.042;6.838;2023-03-01T00:14:09;12.20;;;8.82;;
24745;SDS011;12845;52.042;6.838;2023-03-01T00:16:35;12.85;;;9.32;;
24745;SDS011;12845;52.042;6.838;2023-03-01T00:19:04;12.82;;;10.02;;
24745;SDS011;12845;52.042;6.838;2023-03-01T00:21:30;15.15;;;9.73;;
24745;SDS011;12845;52.042;6.838;2023-03-01T00:23:55;15.85;;;10.07;;
24745;SDS011;12845;52.042;6.838;2023-03-01T00:26:22;17.42;;;10.20;;
24745;SDS011;12845;52.042;6.838;2023-03-01T00:28:49;16.50;;;10.50;;
24745;SDS011;12845;52.042;6.838;2023-03-01T00:31:15;16.20;;;9.88;;
24745;SDS011;12845;52.042;6.838;2023-03-01T00:33:44;15.80;;;9.95;;
24745;SDS011;12845;52.042;6.838;2023-03-01T00:36:10;13.90;;;9.88;;
24745;SDS011;12845;52.042;6.838;2023-03-01T00:38:40;14.65;;;10.68;;
24745;SDS011;12845;52.042;6.838;2023-03-01T00:41:10;14.50;;;10.43;;
24745;SDS011;12845;52.042;6.838;2023-03-01T00:43:37;16.20;;;11.23;;
24745;SDS011;12845;52.042;6.838;2023-03-01T00:46:04;14.82;;;11.00;;
24745;SDS011;12845;52.042;6.838;2023-03-01T00:48:31;12.88;;;9.68;;
24745;SDS011;12845;52.042;6.838;2023-03-01T00:50:56;15.23;;;11.10;;
24745;SDS011;12845;52.042;6.838;2023-03-01T00:53:22;18.67;;;10.70;;
24745;SDS011;12845;52.042;6.838;2023-03-01T00:55:47;15.82;;;11.48;;
24745;SDS011;12845;52.042;6.838;2023-03-01T00:58:13;15.13;;;10.45;;
24745;SDS011;12845;52.042;6.838;2023-03-01T01:00:38;15.38;;;10.82;;
24745;SDS011;12845;52.042;6.838;2023-03-01T01:03:03;16.17;;;10.30;;
24745;SDS011;12845;52.042;6.838;2023-03-01T01:05:29;15.55;;;10.55;;
24745;SDS011;12845;52.042;6.838;2023-03-01T01:07:54;16.17;;;11.02;;
24745;SDS011;12845;52.042;6.838;2023-03-01T01:10:19;15.55;;;11.00;;
24745;SDS011;12845;52.042;6.838;2023-03-01T01:12:45;17.23;;;11.75;;
24745;SDS011;12845;52.042;6.838;2023-03-01T01:15:11;15.82;;;10.98;;
24745;SDS011;12845;52.042;6.838;2023-03-01T01:17:39;14.05;;;11.18;;
24745;SDS011;12845;52.042;6.838;2023-03-01T01:20:05;15.85;;;11.57;;
24745;SDS011;12845;52.042;6.838;2023-03-01T01:22:31;15.07;;;10.73;;
24745;SDS011;12845;52.042;6.838;2023-03-01T01:24:56;17.95;;;11.77;;
24745;SDS011;12845;52.042;6.838;2023-03-01T01:27:22;16.10;;;11.43;;
24745;SDS011;12845;52.042;6.838;2023-03-01T01:29:47;17.85;;;11.73;;
24745;SDS011;12845;52.042;6.838;2023-03-01T01:32:13;15.15;;;11.65;;
24745;SDS011;12845;52.042;6.838;2023-03-01T01:34:38;17.15;;;11.68;;
24745;SDS011;12845;52.042;6.838;2023-03-01T01:37:03;16.50;;;11.52;;
24745;SDS011;12845;52.042;6.838;2023-03-01T01:39:32;18.88;;;11.88;;
24745;SDS011;12845;52.042;6.838;2023-03-01T01:41:59;20.15;;;11.85;;
24745;SDS011;12845;52.042;6.838;2023-03-01T01:44:25;17.73;;;11.68;;
24745;SDS011;12845;52.042;6.838;2023-03-01T01:49:31;18.85;;;12.00;;
24745;SDS011;12845;52.042;6.838;2023-03-01T01:52:04;18.25;;;12.70;;
24745;SDS011;12845;52.042;6.838;2023-03-01T01:54:49;16.90;;;12.35;;
24745;SDS011;12845;52.042;6.838;2023-03-01T01:57:19;20.77;;;12.68;;
24745;SDS011;12845;52.042;6.838;2023-03-01T01:59:52;16.15;;;11.80;;
24745;SDS011;12845;52.042;6.838;2023-03-01T02:02:21;16.65;;;12.20;;
24745;SDS011;12845;52.042;6.838;2023-03-01T02:04:47;17.42;;;11.88;;
24745;SDS011;12845;52.042;6.838;2023-03-01T02:07:18;18.02;;;12.40;;
24745;SDS011;12845;52.042;6.838;2023-03-01T02:09:47;17.85;;;12.23;;
24745;SDS011;12845;52.042;6.838;2023-03-01T02:12:14;17.02;;;12.45;;
24745;SDS011;12845;52.042;6.838;2023-03-01T02:14:42;18.63;;;12.23;;
24745;SDS011;12845;52.042;6.838;2023-03-01T02:17:08;16.30;;;11.90;;
24745;SDS011;12845;52.042;6.838;2023-03-01T02:19:43;16.05;;;12.27;;
24745;SDS011;12845;52.042;6.838;2023-03-01T02:22:23;19.05;;;12.20;;
24745;SDS011;12845;52.042;6.838;2023-03-01T02:30:28;19.80;;;11.85;;
24745;SDS011;12845;52.042;6.838;2023-03-01T02:32:54;20.00;;;12.88;;
24745;SDS011;12845;52.042;6.838;2023-03-01T02:35:27;17.67;;;12.68;;
24745;SDS011;12845;52.042;6.838;2023-03-01T02:37:59;18.58;;;12.55;;
24745;SDS011;12845;52.042;6.838;2023-03-01T02:40:27;19.35;;;13.07;;
24745;SDS011;12845;52.042;6.838;2023-03-01T02:42:56;19.13;;;12.05;;
24745;SDS011;12845;52.042;6.838;2023-03-01T02:45:23;18.55;;;13.00;;
24745;SDS011;12845;52.042;6.838;2023-03-01T02:47:49;19.52;;;14.10;;
24745;SDS011;12845;52.042;6.838;2023-03-01T02:56:00;17.63;;;12.90;;
24745;SDS011;12845;52.042;6.838;2023-03-01T02:58:26;17.90;;;13.30;;
24745;SDS011;12845;52.042;6.838;2023-03-01T03:00:51;18.13;;;13.20;;
24745;SDS011;12845;52.042;6.838;2023-03-01T03:03:17;17.30;;;13.25;;
24745;SDS011;12845;52.042;6.838;2023-03-01T03:05:45;18.58;;;13.50;;
24745;SDS011;12845;52.042;6.838;2023-03-01T03:08:11;20.73;;;12.95;;
24745;SDS011;12845;52.042;6.838;2023-03-01T03:10:40;19.70;;;13.15;;
24745;SDS011;12845;52.042;6.838;2023-03-01T03:13:09;21.42;;;12.35;;
24745;SDS011;12845;52.042;6.838;2023-03-01T03:18:04;21.15;;;13.57;;
24745;SDS011;12845;52.042;6.838;2023-03-01T03:20:32;20.35;;;13.32;;
24745;SDS011;12845;52.042;6.838;2023-03-01T03:22:58;18.80;;;12.93;;
24745;SDS011;12845;52.042;6.838;2023-03-01T03:25:24;20.27;;;13.10;;
24745;SDS011;12845;52.042;6.838;2023-03-01T03:27:51;17.42;;;12.20;;
24745;SDS011;12845;52.042;6.838;2023-03-01T03:30:21;19.20;;;13.13;;
24745;SDS011;12845;52.042;6.838;2023-03-01T03:32:48;17.45;;;11.57;;
24745;SDS011;12845;52.042;6.838;2023-03-01T03:35:24;18.33;;;12.68;;
24745;SDS011;12845;52.042;6.838;2023-03-01T03:37:55;19.88;;;13.48;;
24745;SDS011;12845;52.042;6.838;2023-03-01T03:43:27;17.73;;;12.90;;
24745;SDS011;12845;52.042;6.838;2023-03-01T03:45:53;18.85;;;13.73;;
24745;SDS011;12845;52.042;6.838;2023-03-01T03:48:19;18.13;;;12.50;;
24745;SDS011;12845;52.042;6.838;2023-03-01T03:50:49;17.98;;;12.73;;
24745;SDS011;12845;52.042;6.838;2023-03-01T03:53:16;23.88;;;13.23;;
24745;SDS011;12845;52.042;6.838;2023-03-01T03:55:42;19.95;;;13.82;;
24745;SDS011;12845;52.042;6.838;2023-03-01T03:58:09;20.05;;;11.88;;
24745;SDS011;12845;52.042;6.838;2023-03-01T04:00:40;20.05;;;12.93;;
24745;SDS011;12845;52.042;6.838;2023-03-01T04:03:07;18.65;;;11.52;;
24745;SDS011;12845;52.042;6.838;2023-03-01T04:05:37;20.70;;;14.30;;
24745;SDS011;12845;52.042;6.838;2023-03-01T04:08:03;18.33;;;12.55;;
24745;SDS011;12845;52.042;6.838;2023-03-01T04:10:39;23.15;;;14.85;;
24745;SDS011;12845;52.042;6.838;2023-03-01T04:13:06;19.33;;;13.15;;
24745;SDS011;12845;52.042;6.838;2023-03-01T04:15:34;22.13;;;13.82;;
24745;SDS011;12845;52.042;6.838;2023-03-01T04:18:00;19.98;;;13.50;;
24745;SDS011;12845;52.042;6.838;2023-03-01T04:20:27;19.40;;;14.02;;
24745;SDS011;12845;52.042;6.838;2023-03-01T04:23:03;20.90;;;14.15;;
24745;SDS011;12845;52.042;6.838;2023-03-01T04:25:36;20.08;;;13.02;;
24745;SDS011;12845;52.042;6.838;2023-03-01T04:28:05;20.17;;;13.18;;
24745;SDS011;12845;52.042;6.838;2023-03-01T04:30:31;18.33;;;11.75;;
24745;SDS011;12845;52.042;6.838;2023-03-01T04:33:00;16.80;;;12.20;;
24745;SDS011;12845;52.042;6.838;2023-03-01T04:35:33;20.40;;;12.95;;
24745;SDS011;12845;52.042;6.838;2023-03-01T04:38:00;18.08;;;13.02;;
24745;SDS011;12845;52.042;6.838;2023-03-01T04:40:25;19.42;;;12.65;;
24745;SDS011;12845;52.042;6.838;2023-03-01T04:42:50;19.83;;;13.27;;
24745;SDS011;12845;52.042;6.838;2023-03-01T04:45:16;23.30;;;13.80;;
24745;SDS011;12845;52.042;6.838;2023-03-01T04:47:42;18.92;;;12.93;;
24745;SDS011;12845;52.042;6.838;2023-03-01T04:50:09;19.88;;;13.02;;
24745;SDS011;12845;52.042;6.838;2023-03-01T04:52:37;19.83;;;13.30;;
24745;SDS011;12845;52.042;6.838;2023-03-01T04:55:03;22.38;;;12.73;;
24745;SDS011;12845;52.042;6.838;2023-03-01T04:57:29;18.83;;;12.05;;
24745;SDS011;12845;52.042;6.838;2023-03-01T04:59:55;20.38;;;13.68;;
24745;SDS011;12845;52.042;6.838;2023-03-01T05:02:20;17.95;;;12.60;;
24745;SDS011;12845;52.042;6.838;2023-03-01T05:04:46;20.35;;;13.32;;
24745;SDS011;12845;52.042;6.838;2023-03-01T05:07:11;19.48;;;14.20;;
24745;SDS011;12845;52.042;6.838;2023-03-01T05:09:38;17.65;;;12.00;;
24745;SDS011;12845;52.042;6.838;2023-03-01T05:12:03;17.40;;;11.70;;
24745;SDS011;12845;52.042;6.838;2023-03-01T05:14:29;21.77;;;13.82;;
24745;SDS011;12845;52.042;6.838;2023-03-01T05:16:54;17.92;;;11.88;;
24745;SDS011;12845;52.042;6.838;2023-03-01T05:19:20;19.80;;;13.45;;
24745;SDS011;12845;52.042;6.838;2023-03-01T05:21:47;21.73;;;13.60;;
24745;SDS011;12845;52.042;6.838;2023-03-01T05:24:29;20.80;;;12.40;;
24745;SDS011;12845;52.042;6.838;2023-03-01T05:26:57;21.83;;;13.87;;
24745;SDS011;12845;52.042;6.838;2023-03-01T05:29:23;18.85;;;12.35;;
24745;SDS011;12845;52.042;6.838;2023-03-01T05:31:51;19.85;;;12.55;;
24745;SDS011;12845;52.042;6.838;2023-03-01T05:34:27;18.33;;;11.93;;
24745;SDS011;12845;52.042;6.838;2023-03-01T05:36:54;19.48;;;13.20;;
24745;SDS011;12845;52.042;6.838;2023-03-01T05:39:20;20.83;;;14.27;;
24745;SDS011;12845;52.042;6.838;2023-03-01T05:41:47;20.00;;;13.68;;
24745;SDS011;12845;52.042;6.838;2023-03-01T05:44:13;20.48;;;14.60;;
24745;SDS011;12845;52.042;6.838;2023-03-01T05:46:38;17.98;;;13.10;;
24745;SDS011;12845;52.042;6.838;2023-03-01T05:49:04;19.40;;;12.63;;
24745;SDS011;12845;52.042;6.838;2023-03-01T05:51:30;20.25;;;13.25;;
24745;SDS011;12845;52.042;6.838;2023-03-01T05:53:55;23.58;;;14.60;;
24745;SDS011;12845;52.042;6.838;2023-03-01T05:56:20;21.55;;;13.50;;
24745;SDS011;12845;52.042;6.838;2023-03-01T05:58:50;21.42;;;14.63;;
24745;SDS011;12845;52.042;6.838;2023-03-01T06:01:15;20.48;;;13.18;;
24745;SDS011;12845;52.042;6.838;2023-03-01T06:03:41;18.70;;;13.50;;
24745;SDS011;12845;52.042;6.838;2023-03-01T06:06:06;21.58;;;13.90;;
24745;SDS011;12845;52.042;6.838;2023-03-01T06:08:31;20.90;;;14.75;;
24745;SDS011;12845;52.042;6.838;2023-03-01T06:10:57;20.05;;;14.52;;
24745;SDS011;12845;52.042;6.838;2023-03-01T06:13:22;20.73;;;14.52;;
24745;SDS011;12845;52.042;6.838;2023-03-01T06:15:48;18.83;;;13.98;;
24745;SDS011;12845;52.042;6.838;2023-03-01T06:18:14;22.60;;;14.85;;
24745;SDS011;12845;52.042;6.838;2023-03-01T06:20:39;22.42;;;14.45;;
24745;SDS011;12845;52.042;6.838;2023-03-01T06:23:04;20.13;;;13.85;;
24745;SDS011;12845;52.042;6.838;2023-03-01T06:25:30;22.15;;;14.82;;
24745;SDS011;12845;52.042;6.838;2023-03-01T06:27:55;21.73;;;15.02;;
24745;SDS011;12845;52.042;6.838;2023-03-01T06:30:21;19.08;;;14.07;;
24745;SDS011;12845;52.042;6.838;2023-03-01T06:32:48;23.05;;;14.40;;
24745;SDS011;12845;52.042;6.838;2023-03-01T06:35:14;19.35;;;12.85;;
24745;SDS011;12845;52.042;6.838;2023-03-01T06:37:43;19.60;;;14.43;;
24745;SDS011;12845;52.042;6.838;2023-03-01T06:40:09;26.27;;;15.23;;
24745;SDS011;12845;52.042;6.838;2023-03-01T06:42:36;17.58;;;12.48;;
24745;SDS011;12845;52.042;6.838;2023-03-01T06:45:03;22.55;;;14.18;;
24745;SDS011;12845;52.042;6.838;2023-03-01T06:47:30;27.05;;;15.23;;
24745;SDS011;12845;52.042;6.838;2023-03-01T06:49:55;23.80;;;15.15;;
24745;SDS011;12845;52.042;6.838;2023-03-01T06:52:21;21.13;;;14.65;;
24745;SDS011;12845;52.042;6.838;2023-03-01T06:54:46;19.38;;;13.27;;
24745;SDS011;12845;52.042;6.838;2023-03-01T06:57:12;21.33;;;15.20;;
24745;SDS011;12845;52.042;6.838;2023-03-01T06:59:37;20.73;;;15.32;;
24745;SDS011;12845;52.042;6.838;2023-03-01T07:02:02;22.83;;;14.50;;
24745;SDS011;12845;52.042;6.838;2023-03-01T07:04:28;22.85;;;14.43;;
24745;SDS011;12845;52.042;6.838;2023-03-01T07:06:56;23.38;;;16.42;;
24745;SDS011;12845;52.042;6.838;2023-03-01T07:09:22;22.08;;;15.43;;
24745;SDS011;12845;52.042;6.838;2023-03-01T07:11:48;25.75;;;16.38;;
24745;SDS011;12845;52.042;6.838;2023-03-01T07:14:14;24.02;;;16.77;;
24745;SDS011;12845;52.042;6.838;2023-03-01T07:16:39;23.35;;;16.48;;
24745;SDS011;12845;52.042;6.838;2023-03-01T07:19:04;22.08;;;15.82;;
24745;SDS011;12845;52.042;6.838;2023-03-01T07:21:30;25.23;;;15.07;;
24745;SDS011;12845;52.042;6.838;2023-03-01T07:23:56;21.48;;;13.48;;
24745;SDS011;12845;52.042;6.838;2023-03-01T07:26:21;20.33;;;15.02;;
24745;SDS011;12845;52.042;6.838;2023-03-01T07:28:47;21.40;;;15.52;;
24745;SDS011;12845;52.042;6.838;2023-03-01T07:31:12;22.67;;;15.40;;
24745;SDS011;12845;52.042;6.838;2023-03-01T07:33:37;18.55;;;13.35;;
24745;SDS011;12845;52.042;6.838;2023-03-01T07:36:03;19.95;;;15.38;;
24745;SDS011;12845;52.042;6.838;2023-03-01T07:38:29;19.50;;;15.15;;
24745;SDS011;12845;52.042;6.838;2023-03-01T07:41:01;18.55;;;13.77;;
24745;SDS011;12845;52.042;6.838;2023-03-01T07:43:28;21.42;;;14.50;;
24745;SDS011;12845;52.042;6.838;2023-03-01T07:45:54;20.27;;;14.68;;
24745;SDS011;12845;52.042;6.838;2023-03-01T07:48:19;19.75;;;14.80;;
24745;SDS011;12845;52.042;6.838;2023-03-01T07:50:45;22.95;;;14.88;;
24745;SDS011;12845;52.042;6.838;2023-03-01T07:53:10;19.08;;;14.55;;
24745;SDS011;12845;52.042;6.838;2023-03-01T07:55:36;18.42;;;14.75;;
24745;SDS011;12845;52.042;6.838;2023-03-01T07:58:01;20.40;;;14.48;;
24745;SDS011;12845;52.042;6.838;2023-03-01T08:00:27;20.38;;;14.30;;
24745;SDS011;12845;52.042;6.838;2023-03-01T08:02:52;22.50;;;14.95;;
24745;SDS011;12845;52.042;6.838;2023-03-01T08:05:17;17.08;;;13.32;;
24745;SDS011;12845;52.042;6.838;2023-03-01T08:07:43;21.25;;;14.18;;
24745;SDS011;12845;52.042;6.838;2023-03-01T08:10:08;19.85;;;14.25;;
24745;SDS011;12845;52.042;6.838;2023-03-01T08:12:34;17.10;;;13.13;;
24745;SDS011;12845;52.042;6.838;2023-03-01T08:15:00;18.70;;;11.63;;
24745;SDS011;12845;52.042;6.838;2023-03-01T08:17:25;17.83;;;11.80;;
24745;SDS011;12845;52.042;6.838;2023-03-01T08:19:50;17.75;;;12.27;;
24745;SDS011;12845;52.042;6.838;2023-03-01T08:22:16;17.58;;;10.90;;
24745;SDS011;12845;52.042;6.838;2023-03-01T08:24:41;17.75;;;11.13;;
24745;SDS011;12845;52.042;6.838;2023-03-01T08:27:07;17.45;;;11.20;;
24745;SDS011;12845;52.042;6.838;2023-03-01T08:29:32;17.10;;;11.70;;
24745;SDS011;12845;52.042;6.838;2023-03-01T08:31:58;18.35;;;12.00;;
24745;SDS011;12845;52.042;6.838;2023-03-01T08:34:24;14.80;;;10.43;;
24745;SDS011;12845;52.042;6.838;2023-03-01T08:36:49;15.77;;;11.52;;
24745;SDS011;12845;52.042;6.838;2023-03-01T08:39:18;15.98;;;11.73;;
24745;SDS011;12845;52.042;6.838;2023-03-01T08:41:44;14.95;;;10.82;;
24745;SDS011;12845;52.042;6.838;2023-03-01T08:44:11;16.77;;;10.23;;
24745;SDS011;12845;52.042;6.838;2023-03-01T08:46:39;15.40;;;9.75;;
24745;SDS011;12845;52.042;6.838;2023-03-01T08:49:06;16.20;;;10.50;;
24745;SDS011;12845;52.042;6.838;2023-03-01T08:51:33;16.33;;;10.15;;
24745;SDS011;12845;52.042;6.838;2023-03-01T08:54:05;15.70;;;10.95;;
24745;SDS011;12845;52.042;6.838;2023-03-01T08:56:31;16.95;;;10.52;;
24745;SDS011;12845;52.042;6.838;2023-03-01T08:58:57;15.90;;;10.52;;
24745;SDS011;12845;52.042;6.838;2023-03-01T09:01:23;15.27;;;9.38;;
24745;SDS011;12845;52.042;6.838;2023-03-01T09:03:48;13.27;;;9.77;;
24745;SDS011;12845;52.042;6.838;2023-03-01T09:06:13;13.98;;;9.00;;
24745;SDS011;12845;52.042;6.838;2023-03-01T09:08:40;12.45;;;8.95;;
24745;SDS011;12845;52.042;6.838;2023-03-01T09:11:08;11.05;;;8.60;;
24745;SDS011;12845;52.042;6.838;2023-03-01T09:13:35;16.55;;;9.07;;
24745;SDS011;12845;52.042;6.838;2023-03-01T09:16:01;12.80;;;9.63;;
24745;SDS011;12845;52.042;6.838;2023-03-01T09:18:28;13.60;;;9.52;;
24745;SDS011;12845;52.042;6.838;2023-03-01T09:21:04;12.05;;;8.60;;
24745;SDS011;12845;52.042;6.838;2023-03-01T09:23:32;13.02;;;8.75;;
24745;SDS011;12845;52.042;6.838;2023-03-01T09:26:01;13.50;;;8.25;;
24745;SDS011;12845;52.042;6.838;2023-03-01T09:28:28;11.40;;;7.45;;
24745;SDS011;12845;52.042;6.838;2023-03-01T09:30:53;12.68;;;8.45;;
24745;SDS011;12845;52.042;6.838;2023-03-01T09:33:18;10.18;;;7.50;;
24745;SDS011;12845;52.042;6.838;2023-03-01T09:35:44;11.52;;;8.57;;
24745;SDS011;12845;52.042;6.838;2023-03-01T09:38:12;12.02;;;7.90;;
24745;SDS011;12845;52.042;6.838;2023-03-01T09:40:42;11.07;;;7.60;;
24745;SDS011;12845;52.042;6.838;2023-03-01T09:46:03;11.45;;;8.32;;
24745;SDS011;12845;52.042;6.838;2023-03-01T09:48:33;13.20;;;8.35;;
24745;SDS011;12845;52.042;6.838;2023-03-01T09:51:06;12.30;;;7.85;;
24745;SDS011;12845;52.042;6.838;2023-03-01T09:53:37;13.07;;;7.20;;
24745;SDS011;12845;52.042;6.838;2023-03-01T09:56:15;11.23;;;6.68;;
24745;SDS011;12845;52.042;6.838;2023-03-01T10:01:38;11.05;;;6.05;;
24745;SDS011;12845;52.042;6.838;2023-03-01T10:09:34;10.98;;;6.68;;
24745;SDS011;12845;52.042;6.838;2023-03-01T10:12:08;11.30;;;7.57;;
24745;SDS011;12845;52.042;6.838;2023-03-01T10:14:36;10.55;;;7.80;;
24745;SDS011;12845;52.042;6.838;2023-03-01T10:17:11;11.15;;;6.55;;
24745;SDS011;12845;52.042;6.838;2023-03-01T10:22:21;13.30;;;7.05;;
24745;SDS011;12845;52.042;6.838;2023-03-01T10:24:53;13.63;;;7.47;;
24745;SDS011;12845;52.042;6.838;2023-03-01T10:27:23;11.13;;;7.65;;
24745;SDS011;12845;52.042;6.838;2023-03-01T10:30:05;11.63;;;7.25;;
24745;SDS011;12845;52.042;6.838;2023-03-01T10:32:34;14.23;;;7.85;;
24745;SDS011;12845;52.042;6.838;2023-03-01T10:34:59;13.80;;;7.78;;
24745;SDS011;12845;52.042;6.838;2023-03-01T10:37:25;10.10;;;6.57;;
24745;SDS011;12845;52.042;6.838;2023-03-01T10:42:33;10.57;;;7.40;;
24745;SDS011;12845;52.042;6.838;2023-03-01T10:48:01;12.80;;;8.00;;
24745;SDS011;12845;52.042;6.838;2023-03-01T10:50:36;12.40;;;7.57;;
24745;SDS011;12845;52.042;6.838;2023-03-01T10:53:04;12.38;;;7.90;;
24745;SDS011;12845;52.042;6.838;2023-03-01T10:55:31;12.30;;;7.32;;
24745;SDS011;12845;52.042;6.838;2023-03-01T10:58:19;13.27;;;8.00;;
24745;SDS011;12845;52.042;6.838;2023-03-01T11:03:17;11.68;;;8.65;;
24745;SDS011;12845;52.042;6.838;2023-03-01T11:06:00;11.68;;;8.55;;
24745;SDS011;12845;52.042;6.838;2023-03-01T11:11:10;13.30;;;9.48;;
24745;SDS011;12845;52.042;6.838;2023-03-01T11:19:22;12.52;;;8.85;;
24745;SDS011;12845;52.042;6.838;2023-03-01T11:24:33;13.70;;;8.77;;
24745;SDS011;12845;52.042;6.838;2023-03-01T11:27:06;14.82;;;8.75;;
24745;SDS011;12845;52.042;6.838;2023-03-01T11:29:41;12.32;;;8.65;;
24745;SDS011;12845;52.042;6.838;2023-03-01T11:32:11;13.15;;;8.50;;
24745;SDS011;12845;52.042;6.838;2023-03-01T11:34:56;13.25;;;8.60;;
24745;SDS011;12845;52.042;6.838;2023-03-01T11:40:24;11.60;;;8.52;;
24745;SDS011;12845;52.042;6.838;2023-03-01T11:43:02;13.27;;;8.32;;
24745;SDS011;12845;52.042;6.838;2023-03-01T11:48:33;13.07;;;8.85;;
24745;SDS011;12845;52.042;6.838;2023-03-01T11:51:16;13.35;;;9.50;;
24745;SDS011;12845;52.042;6.838;2023-03-01T11:56:55;20.63;;;14.15;;
24745;SDS011;12845;52.042;6.838;2023-03-01T12:07:36;13.43;;;10.02;;
24745;SDS011;12845;52.042;6.838;2023-03-01T12:18:51;13.27;;;8.43;;
24745;SDS011;12845;52.042;6.838;2023-03-01T12:21:28;12.02;;;8.82;;
24745;SDS011;12845;52.042;6.838;2023-03-01T12:24:10;10.55;;;7.35;;
24745;SDS011;12845;52.042;6.838;2023-03-01T12:32:15;12.77;;;8.48;;
24745;SDS011;12845;52.042;6.838;2023-03-01T12:35:05;10.77;;;6.82;;
24745;SDS011;12845;52.042;6.838;2023-03-01T12:45:54;11.68;;;7.40;;
24745;SDS011;12845;52.042;6.838;2023-03-01T12:48:51;11.65;;;7.95;;
24745;SDS011;12845;52.042;6.838;2023-03-01T12:51:26;10.52;;;6.85;;
24745;SDS011;12845;52.042;6.838;2023-03-01T12:53:55;10.02;;;6.38;;
24745;SDS011;12845;52.042;6.838;2023-03-01T12:56:34;9.43;;;6.65;;
24745;SDS011;12845;52.042;6.838;2023-03-01T13:02:13;19.83;;;12.93;;
24745;SDS011;12845;52.042;6.838;2023-03-01T13:04:53;13.85;;;9.52;;
24745;SDS011;12845;52.042;6.838;2023-03-01T13:07:21;9.63;;;6.78;;
24745;SDS011;12845;52.042;6.838;2023-03-01T13:17:54;13.43;;;9.07;;
24745;SDS011;12845;52.042;6.838;2023-03-01T13:30:56;9.75;;;7.13;;
24745;SDS011;12845;52.042;6.838;2023-03-01T13:35:51;13.45;;;9.20;;
24745;SDS011;12845;52.042;6.838;2023-03-01T13:38:36;13.25;;;8.95;;
24745;SDS011;12845;52.042;6.838;2023-03-01T13:44:25;15.93;;;9.05;;
24745;SDS011;12845;52.042;6.838;2023-03-01T13:46:59;12.15;;;8.07;;
24745;SDS011;12845;52.042;6.838;2023-03-01T13:49:52;12.55;;;7.03;;
24745;SDS011;12845;52.042;6.838;2023-03-01T13:52:34;10.30;;;7.63;;
24745;SDS011;12845;52.042;6.838;2023-03-01T13:55:14;12.63;;;11.40;;
24745;SDS011;12845;52.042;6.838;2023-03-01T13:58:00;12.23;;;9.80;;
24745;SDS011;12845;52.042;6.838;2023-03-01T14:00:30;9.70;;;7.55;;
24745;SDS011;12845;52.042;6.838;2023-03-01T14:03:14;10.68;;;7.78;;
24745;SDS011;12845;52.042;6.838;2023-03-01T14:05:43;11.43;;;8.00;;
24745;SDS011;12845;52.042;6.838;2023-03-01T14:08:24;7.57;;;6.22;;
24745;SDS011;12845;52.042;6.838;2023-03-01T14:11:00;7.57;;;5.70;;
24745;SDS011;12845;52.042;6.838;2023-03-01T14:16:23;10.95;;;6.97;;
24745;SDS011;12845;52.042;6.838;2023-03-01T14:21:39;8.57;;;6.57;;
24745;SDS011;12845;52.042;6.838;2023-03-01T14:24:05;7.65;;;5.50;;
24745;SDS011;12845;52.042;6.838;2023-03-01T14:26:31;8.27;;;6.28;;
24745;SDS011;12845;52.042;6.838;2023-03-01T14:28:58;9.63;;;6.30;;
24745;SDS011;12845;52.042;6.838;2023-03-01T14:31:37;9.02;;;5.50;;
24745;SDS011;12845;52.042;6.838;2023-03-01T14:34:03;10.80;;;7.53;;
24745;SDS011;12845;52.042;6.838;2023-03-01T14:36:30;12.10;;;8.75;;
24745;SDS011;12845;52.042;6.838;2023-03-01T14:38:57;10.18;;;7.50;;
24745;SDS011;12845;52.042;6.838;2023-03-01T14:41:30;8.80;;;6.15;;
24745;SDS011;12845;52.042;6.838;2023-03-01T14:44:12;6.55;;;4.45;;
24745;SDS011;12845;52.042;6.838;2023-03-01T14:46:51;9.70;;;6.78;;
24745;SDS011;12845;52.042;6.838;2023-03-01T14:49:22;7.55;;;5.13;;
24745;SDS011;12845;52.042;6.838;2023-03-01T14:51:57;10.98;;;6.72;;
24745;SDS011;12845;52.042;6.838;2023-03-01T14:57:15;7.95;;;5.82;;
24745;SDS011;12845;52.042;6.838;2023-03-01T14:59:43;9.15;;;6.07;;
24745;SDS011;12845;52.042;6.838;2023-03-01T15:02:16;9.00;;;6.97;;
24745;SDS011;12845;52.042;6.838;2023-03-01T15:05:00;10.27;;;6.20;;
24745;SDS011;12845;52.042;6.838;2023-03-01T15:07:33;7.70;;;4.60;;
24745;SDS011;12845;52.042;6.838;2023-03-01T15:10:02;7.47;;;5.25;;
24745;SDS011;12845;52.042;6.838;2023-03-01T15:15:01;7.68;;;5.25;;
24745;SDS011;12845;52.042;6.838;2023-03-01T15:17:43;6.20;;;3.95;;
24745;SDS011;12845;52.042;6.838;2023-03-01T15:20:16;6.32;;;4.65;;
24745;SDS011;12845;52.042;6.838;2023-03-01T15:22:45;7.95;;;4.57;;
24745;SDS011;12845;52.042;6.838;2023-03-01T15:25:23;12.38;;;5.40;;
24745;SDS011;12845;52.042;6.838;2023-03-01T15:27:51;10.55;;;6.40;;
24745;SDS011;12845;52.042;6.838;2023-03-01T15:30:29;7.55;;;5.20;;
24745;SDS011;12845;52.042;6.838;2023-03-01T15:33:18;8.00;;;4.90;;
24745;SDS011;12845;52.042;6.838;2023-03-01T15:35:53;10.98;;;7.13;;
24745;SDS011;12845;52.042;6.838;2023-03-01T15:38:49;13.17;;;6.97;;
24745;SDS011;12845;52.042;6.838;2023-03-01T15:41:48;6.72;;;4.60;;
24745;SDS011;12845;52.042;6.838;2023-03-01T15:44:14;7.75;;;4.68;;
24745;SDS011;12845;52.042;6.838;2023-03-01T15:46:50;6.65;;;4.25;;
24745;SDS011;12845;52.042;6.838;2023-03-01T15:52:05;6.78;;;4.63;;
24745;SDS011;12845;52.042;6.838;2023-03-01T15:54:38;7.10;;;4.85;;
24745;SDS011;12845;52.042;6.838;2023-03-01T15:57:08;7.13;;;4.95;;
24745;SDS011;12845;52.042;6.838;2023-03-01T15:59:38;6.82;;;4.57;;
24745;SDS011;12845;52.042;6.838;2023-03-01T16:02:08;7.90;;;4.75;;
24745;SDS011;12845;52.042;6.838;2023-03-01T16:04:35;7.45;;;4.40;;
24745;SDS011;12845;52.042;6.838;2023-03-01T16:07:01;10.20;;;4.72;;
24745;SDS011;12845;52.042;6.838;2023-03-01T16:09:26;6.82;;;4.38;;
24745;SDS011;12845;52.042;6.838;2023-03-01T16:11:52;5.25;;;3.92;;
24745;SDS011;12845;52.042;6.838;2023-03-01T16:14:18;6.95;;;4.05;;
24745;SDS011;12845;52.042;6.838;2023-03-01T16:16:44;7.63;;;4.13;;
24745;SDS011;12845;52.042;6.838;2023-03-01T16:19:10;6.30;;;4.30;;
24745;SDS011;12845;52.042;6.838;2023-03-01T16:21:36;7.30;;;4.40;;
24745;SDS011;12845;52.042;6.838;2023-03-01T16:24:02;6.50;;;4.38;;
24745;SDS011;12845;52.042;6.838;2023-03-01T16:26:27;7.75;;;5.15;;
24745;SDS011;12845;52.042;6.838;2023-03-01T16:28:56;8.80;;;5.65;;
24745;SDS011;12845;52.042;6.838;2023-03-01T16:31:22;8.57;;;6.72;;
24745;SDS011;12845;52.042;6.838;2023-03-01T16:33:49;9.95;;;7.50;;
24745;SDS011;12845;52.042;6.838;2023-03-01T16:36:16;10.95;;;5.93;;
24745;SDS011;12845;52.042;6.838;2023-03-01T16:38:43;13.38;;;8.65;;
24745;SDS011;12845;52.042;6.838;2023-03-01T16:41:13;11.65;;;6.35;;
24745;SDS011;12845;52.042;6.838;2023-03-01T16:43:40;12.85;;;8.50;;
24745;SDS011;12845;52.042;6.838;2023-03-01T16:46:09;14.48;;;8.30;;
24745;SDS011;12845;52.042;6.838;2023-03-01T16:48:36;19.38;;;12.88;;
24745;SDS011;12845;52.042;6.838;2023-03-01T16:51:01;17.13;;;10.55;;
24745;SDS011;12845;52.042;6.838;2023-03-01T16:53:27;8.38;;;5.90;;